Weather observations for the past three days for
Clinton Municipal Airport
Metric (Imperial)
Date Time (cdt) Wind (kph) Vis. (km) Weather Sky Cond. Temperature (ºC) Relative Humidity Wind Chill (°C) Heat Index (°C) Pressure Precipitation (cm)
Air Dwpt 6 hour altimeter (cm) sea level (mb) 1 hr 3 hr 6 hr
Max. Min.
04 11:56 W 13 16.09 Partly Cloudy SCT110 32.2 23.3 59% 37 76.1 1014.0
04 10:56 SW 13 16.09 Fair CLR 32.8 23.3 57% 38 76.1 1014.0
04 09:56 W 9 16.09 Fair CLR 30 23.3 67% 34 76.1 1014.2
04 08:56 SW 11 16.09 Fair CLR 27.8 23.3 77% 31 76.07 1013.7
04 07:56 SW 6 16.09 Fair CLR 25.6 22.8 85% 27 76.02 1013.2
04 06:56 S 6 16.09 Fair CLR 22.8 21.7 25.6 22.8 94% 75.97 1012.8
04 05:56 SE 7 16.09 Fair CLR 23.9 22.2 90% 23 75.97 1012.4
04 04:56 SE 7 16.09 Fair CLR 23.3 22.2 94% 75.97 1012.6
04 03:56 S 7 16.09 Fair CLR 23.9 22.2 90% 23 75.95 1012.2
04 02:56 SW 9 16.09 Fair CLR 23.9 22.8 94% 23 75.92 1011.8
04 01:56 S 9 16.09 Fair CLR 25 23.9 94% 26 75.97 1012.5
04 00:56 S 9 16.09 Fair CLR 25.6 23.9 30.6 25.6 90% 27 76 1012.8
03 23:56 SE 9 16.09 Fair CLR 26.1 24.4 90% 28 76 1012.8
03 22:56 SE 9 16.09 Fair CLR 26.7 24.4 87% 30 76 1012.9
03 21:56 SE 7 16.09 Fair CLR 25.6 23.9 90% 27 76 1012.8
03 20:56 SE 7 16.09 Fair CLR 28.3 24.4 79% 33 75.95 1012.4
03 19:56 S 9 16.09 Fair CLR 29.4 24.4 75% 35 75.9 1011.7
03 18:56 S 13 16.09 Fair CLR 30.6 24.4 35 30.6 70% 36 75.87 1011.3
03 17:56 S 26 16.09 Fair CLR 32.8 23.9 59% 39 75.82 1010.3
03 16:56 SW 15 16.09 Fair CLR 33.9 23.9 56% 40 75.92 1011.9
03 15:56 S 9 16.09 Fair CLR 34.4 23.9 54% 41 75.97 1012.3
03 14:56 S 11 16.09 Fair CLR 34.4 23.3 52% 40 75.97 1012.5
03 13:56 Calm 16.09 Fair CLR 33.3 23.9 58% 39 76.02 1013.0
03 12:56 SE 7 16.09 Fair CLR 32.2 23.9 32.8 23.9 62% 38 76.05 1013.6
03 11:56 Calm 16.09 Fair CLR 30 23.9 70% 35 76.07 1013.9
03 10:56 Calm 16.09 Fair CLR 28.9 23.9 74% 33 76.1 1014.3
03 09:56 N 9 16.09 Overcast OVC090 27.8 23.9 79% 32 76.1 1014.3
03 08:56 S 7 16.09 Overcast OVC100 27.2 23.3 79% 30 76.05 1013.6
03 07:56 Calm 16.09 Mostly Cloudy FEW050 BKN100 24.4 23.3 94% 24 76.05 1013.8
03 06:56 S 6 16.09 A Few Clouds FEW120 23.9 22.2 25.6 23.3 90% 23 76.02 1013.5
03 05:56 S 6 16.09 Fair CLR 23.3 21.7 91% 76 1013.0
03 04:56 S 6 16.09 Fair CLR 23.9 21.7 88% 24 76 1012.9
03 03:56 S 7 16.09 Fair CLR 24.4 22.2 88% 25 76 1012.7
03 02:56 S 7 16.09 Fair CLR 23.9 22.2 90% 23 76 1012.7
03 01:56 S 7 16.09 Fair CLR 25 22.8 88% 26 76 1012.8
03 00:56 S 7 16.09 A Few Clouds FEW100 25.6 23.9 29.4 25 90% 27 76 1012.9
02 23:56 SE 6 16.09 Partly Cloudy SCT110 25 23.9 94% 26 76.02 1013.0
02 21:56 S 6 16.09 Fair CLR 26.7 24.4 87% 30 76 1012.8
02 20:56 S 9 14.48 Fair CLR 27.8 24.4 82% 32 75.97 1012.5
02 19:56 S 9 16.09 Fair CLR 28.3 24.4 79% 33 75.95 1012.0
02 18:56 SW 7 16.09 Fair CLR 29.4 24.4 35 29.4 75% 35 75.95 1012.3
02 17:56 SW 11 16.09 Fair CLR 32.2 25 66% 39 75.95 1012.3
02 16:56 W 13 16.09 A Few Clouds FEW110 33.9 23.3 54% 40 75.97 1012.5
02 15:56 SW 17 16.09 Fair CLR 34.4 22.8 51% 40 75.97 1012.6
02 14:56 W 17 G 30 16.09 Fair CLR 34.4 22.2 49% 39 76 1012.9
02 13:56 SW 19 16.09 Fair CLR 34.4 23.3 52% 40 76.02 1013.2
02 12:56 SW 19 16.09 Fair CLR 33.9 22.8 33.9 22.2 52% 39 76.05 1013.6
02 11:56 SW 15 16.09 Fair CLR 32.2 23.3 59% 37 76.1 1014.1
02 10:56 SW 17 16.09 Fair CLR 30 22.8 65% 34 76.1 1014.1
02 09:56 SW 11 16.09 Fair CLR 28.3 22.8 72% 32 76.1 1014.4
02 08:56 S 7 16.09 A Few Clouds FEW100 26.1 22.2 79% 28 76.12 1014.5
02 07:56 N 11 16.09 Mostly Cloudy BKN100 23.3 21.7 91% 76.17 1015.3
02 06:56 S 7 16.09 Fair CLR 22.2 20.6 23.9 21.7 91% 76.1 1014.0
02 05:56 S 7 16.09 Fair CLR 21.7 20 90% 76.07 1013.9
02 04:56 S 11 16.09 Partly Cloudy SCT100 22.2 20.6 91% 76.07 1014.1
02 03:56 SW 6 16.09 A Few Clouds FEW100 22.8 20.6 87% 76.1 1014.0
02 02:56 S 7 16.09 Fair CLR 22.8 20.6 87% 76.05 1013.6
02 01:56 Calm 16.09 Fair CLR 22.8 21.1 90% 76.05 1013.6
02 00:56 Calm 16.09 Fair CLR 23.3 21.7 29.4 23.3 91% 76.07 1013.7
01 23:56 Calm 16.09 Fair CLR 24.4 21.7 85% 25 76.07 1013.9
01 22:56 S 11 16.09 Fair CLR 25.6 22.8 85% 27 76.07 1013.7
01 21:56 S 11 16.09 Fair CLR 26.1 23.3 85% 28 76.07 1013.8
01 20:56 SE 7 16.09 Fair CLR 26.1 22.8 82% 28 76.07 1013.7
01 19:56 S 11 16.09 Fair CLR 26.7 23.3 82% 29 76.02 1013.2
01 18:56 SW 11 16.09 Fair CLR 29.4 24.4 34.4 29.4 75% 35 76.02 1013.2
01 17:56 SW 15 16.09 Fair CLR 32.2 24.4 63% 39 76.02 1013.4
01 16:56 SW 9 16.09 Fair CLR 33.3 25 62% 41 76.05 1013.5
01 15:56 SW 13 16.09 Fair CLR 33.9 23.9 56% 40 76.05 1013.5
01 14:56 SW 20 16.09 Fair CLR 33.9 24.4 58% 41 76.07 1013.7
01 13:56 SW 15 16.09 Fair CLR 33.9 24.4 58% 41 76.1 1014.0
01 12:56 SW 15 16.09 Fair CLR 33.3 24.4 33.3 22.8 60% 40 76.12 1014.4
Date Time (cdt) Wind (kph) Vis. (km) Weather Sky Cond. Air Dwpt Max. Min. Relative Humidity Wind Chill (°C) Heat Index (°C) altimeter (cm) sea level (mb) 1 hr 3 hr 6 hr
6 hour
Temperature (ºC) Pressure Precipitation (cm)